Nancy Peterkin — WDI2121 — position and weather

sailwx.info

Track history (hours):
 
Tides and Currents Weather Stations Pressure Air Temp Water Temp Dewpoint Dewpoint Depression Visibility Wind Speed Wind Dir Waves Ship Positions

Nancy Peterkin

Owner: Kirby Offshore Marine, LLC, Seattle, WA. More information available from US FCC via Universal Licensing System and Coast Guard Vessel Documentation Center.

Last reported at 2018-Feb-18 06:08 UTC. Time now 2018-Feb-19 14:21 UTC.
Position N 38°02' W 122°08'.

Length 205 m; draft 5.7 m.

Type: . MMSI: 338134000.

Date/timePositionNaut miles runAvg speedWind from/ knotsBaromVisibWave heightAir tempDewpointWater temp
2018-Feb-18 06:08N 38°02' W 122°08'0 0.0
2018-Feb-18 05:41N 38°02' W 122°08'0 0.1
2018-Feb-18 05:30N 38°02' W 122°08'1 1.6
2018-Feb-18 04:54N 38°02' W 122°09'4 8.2
2018-Feb-18 04:27N 38°04' W 122°13'4 9.7
2018-Feb-18 04:00N 38°03' W 122°18'510.8
2018-Feb-18 03:30N 38°01' W 122°24'5 9.5
2018-Feb-18 03:00N 37°56' W 122°27'5 9.4
2018-Feb-18 02:31N 37°52' W 122°25'611.7
2018-Feb-18 02:01N 37°47' W 122°21'1 2.5
2018-Feb-18 01:30N 37°46' W 122°20'0 0.1
2018-Feb-18 01:00N 37°46' W 122°20'0 0.0
2018-Feb-18 00:29N 37°46' W 122°20'0 0.0
2018-Feb-17 23:59N 37°46' W 122°20'0 0.1
2018-Feb-17 23:29N 37°46' W 122°20'0 0.0
2018-Feb-17 22:59N 37°46' W 122°20'0 0.1
2018-Feb-17 22:26N 37°46' W 122°20'0 0.0
2018-Feb-17 21:56N 37°46' W 122°20'0 0.1
2018-Feb-17 21:29N 37°46' W 122°20'0 0.3
2018-Feb-17 20:59N 37°46' W 122°20'0 0.2
2018-Feb-17 20:29N 37°45' W 122°20'0 0.0
2018-Feb-17 19:59N 37°45' W 122°20'0 0.1
2018-Feb-17 19:29N 37°45' W 122°20'0 0.0
2018-Feb-17 18:59N 37°45' W 122°20'0 0.0
2018-Feb-17 18:29N 37°45' W 122°20'0 0.0
2018-Feb-17 17:59N 37°45' W 122°20'0 0.0
2018-Feb-17 17:29N 37°45' W 122°20'0 0.0
2018-Feb-17 17:00N 37°45' W 122°20'0 0.0
2018-Feb-17 16:29N 37°45' W 122°20'0 0.1
2018-Feb-17 15:59N 37°45' W 122°20'0 0.2
2018-Feb-17 15:29N 37°46' W 122°20'0 0.2
2018-Feb-17 14:59N 37°46' W 122°20'0 0.1
2018-Feb-17 14:29N 37°46' W 122°20'0 0.0
2018-Feb-17 13:59N 37°46' W 122°20'0 0.0
2018-Feb-17 13:29N 37°46' W 122°20'0 0.0
2018-Feb-17 12:59N 37°46' W 122°20'0 0.0
2018-Feb-17 12:29N 37°46' W 122°20'0 0.0
2018-Feb-17 11:59N 37°46' W 122°20'0 0.0
2018-Feb-17 11:29N 37°46' W 122°20'0 0.1
2018-Feb-17 11:00N 37°46' W 122°20'0 0.1
2018-Feb-17 10:29N 37°46' W 122°20'0 0.1
2018-Feb-17 09:59N 37°46' W 122°20'0 0.3
2018-Feb-17 09:29N 37°45' W 122°20'0 0.1
2018-Feb-17 08:59N 37°45' W 122°20'0 0.0
2018-Feb-17 08:29N 37°45' W 122°20'0 0.0
2018-Feb-17 07:59N 37°45' W 122°20'0 0.1
2018-Feb-17 07:29N 37°45' W 122°20'0 0.0
2018-Feb-17 06:59N 37°45' W 122°20'0 0.0
2018-Feb-17 06:29N 37°45' W 122°20'0 0.0
2018-Feb-17 05:59N 37°45' W 122°20'0 0.0
2018-Feb-17 05:29N 37°45' W 122°20'0 0.0
2018-Feb-17 05:00N 37°45' W 122°20'0 0.2
2018-Feb-17 04:29N 37°46' W 122°20'0 0.0
2018-Feb-17 03:59N 37°46' W 122°20'0 0.1
2018-Feb-17 03:29N 37°46' W 122°20'0 0.2
2018-Feb-17 02:59N 37°46' W 122°20'0 0.1
2018-Feb-17 02:29N 37°46' W 122°20'0 0.0
2018-Feb-17 01:59N 37°46' W 122°20'0 0.0
2018-Feb-17 01:29N 37°46' W 122°20'0 0.0
2018-Feb-17 00:56N 37°46' W 122°20'0 0.1
2018-Feb-17 00:29N 37°46' W 122°20'0 0.1
2018-Feb-16 23:59N 37°46' W 122°20'0 0.0
2018-Feb-16 23:29N 37°46' W 122°20'0 0.0
2018-Feb-16 22:59N 37°46' W 122°20'0 0.1
2018-Feb-16 22:31N 37°46' W 122°20'2 2.9
2018-Feb-16 21:59N 37°47' W 122°21'5 9.9
2018-Feb-16 21:31N 37°51' W 122°25'4 8.7
2018-Feb-16 21:00N 37°55' W 122°25'0 0.2
2018-Feb-16 20:29N 37°55' W 122°25'0 0.0
2018-Feb-16 19:59N 37°55' W 122°25'0 0.0
2018-Feb-16 19:26N 37°55' W 122°25'0 0.0
2018-Feb-16 18:59N 37°55' W 122°25'0 0.0
2018-Feb-16 18:26N 37°55' W 122°25'0 0.0
2018-Feb-16 17:59N 37°55' W 122°25'0 0.0
2018-Feb-16 17:29N 37°55' W 122°25'0 0.0
2018-Feb-16 16:59N 37°55' W 122°25'0 0.0
2018-Feb-16 16:23N 37°55' W 122°25'0 0.0
2018-Feb-16 15:59N 37°55' W 122°25'0 0.0
2018-Feb-16 15:29N 37°55' W 122°25'0 0.0
2018-Feb-16 14:59N 37°55' W 122°25'0 0.0
2018-Feb-16 14:29N 37°55' W 122°25'0 0.0
2018-Feb-16 13:59N 37°55' W 122°25'0 0.0
2018-Feb-16 13:29N 37°55' W 122°25'0 0.0
2018-Feb-16 12:59N 37°55' W 122°25'0 0.0
2018-Feb-16 12:29N 37°55' W 122°25'0 0.0
2018-Feb-16 11:59N 37°55' W 122°25'0 0.0
2018-Feb-16 11:29N 37°55' W 122°25'0 0.0
2018-Feb-16 10:59N 37°55' W 122°25'0 0.0
2018-Feb-16 10:23N 37°55' W 122°25'0 0.0
2018-Feb-16 09:56N 37°55' W 122°25'0 0.0
2018-Feb-16 09:29N 37°55' W 122°25'0 0.0
2018-Feb-16 08:53N 37°55' W 122°25'0 0.0
2018-Feb-16 08:29N 37°55' W 122°25'0 0.0
2018-Feb-16 07:59N 37°55' W 122°25'0 0.0
2018-Feb-16 07:29N 37°55' W 122°25'0 0.0
2018-Feb-16 06:59N 37°55' W 122°25'0 0.0
2018-Feb-16 06:29N 37°55' W 122°25'0 0.0
2018-Feb-16 05:59N 37°55' W 122°25'0 0.0
2018-Feb-16 05:29N 37°55' W 122°25'0 0.0
2018-Feb-16 04:53N 37°55' W 122°25'0 0.0
2018-Feb-16 04:26N 37°55' W 122°25'0 0.0
2018-Feb-16 03:59N 37°55' W 122°25'0 0.0
2018-Feb-16 03:29N 37°55' W 122°25'0 0.0
2018-Feb-16 02:59N 37°55' W 122°25'0 0.0
2018-Feb-16 02:29N 37°55' W 122°25'0 0.0
2018-Feb-16 01:56N 37°55' W 122°25'0 0.0
2018-Feb-16 01:29N 37°55' W 122°25'0 0.0
2018-Feb-16 00:59N 37°55' W 122°25'0 0.0
2018-Feb-16 00:29N 37°55' W 122°25'0 0.0
2018-Feb-15 23:59N 37°55' W 122°25'0 0.0
2018-Feb-15 23:29N 37°55' W 122°25'0 0.0
2018-Feb-15 22:59N 37°55' W 122°25'0 0.0
2018-Feb-15 22:29N 37°55' W 122°25'0 0.0
2018-Feb-15 21:59N 37°55' W 122°25'0 0.2
2018-Feb-15 21:31N 37°55' W 122°25'2 3.6
2018-Feb-15 21:00N 37°54' W 122°25'4 8.2
2018-Feb-15 20:31N 37°50' W 122°28'510.7
2018-Feb-15 20:01N 37°47' W 122°33'510.7
2018-Feb-15 19:31N 37°45' W 122°40'5 9.6
2018-Feb-15 19:01N 37°42' W 122°44'5 9.8
2018-Feb-15 18:30N 37°39' W 122°49'5 9.9
2018-Feb-15 18:01N 37°37' W 122°55'5 9.6
2018-Feb-15 17:30N 37°34' W 122°60'4 8.7
2018-Feb-15 17:00N 37°33' W 123°05'510.1
2018-Feb-15 16:29N 37°35' W 123°11'510.1
2018-Feb-15 16:01N 37°36' W 123°17'510.1
2018-Feb-15 15:31N 37°38' W 123°23'510.1
2018-Feb-15 15:01N 37°39' W 123°29'610.7
2018-Feb-15 14:28N 37°41' W 123°36'511.4
2018-Feb-15 14:01N 37°44' W 123°42'611.4
2018-Feb-15 13:31N 37°47' W 123°48'611.6
2018-Feb-15 13:00N 37°51' W 123°53'611.5
2018-Feb-15 12:30N 37°55' W 123°58'611.4
2018-Feb-15 12:00N 37°59' W 124°03'1611.4
2018-Feb-15 10:38N 38°10' W 124°17'42012.3
2018-Feb-14 00:29N 45°03' W 125°60'712.9
2018-Feb-13 23:55N 45°11' W 125°60'1913.0
2018-Feb-13 22:29N 45°29' W 125°60'4112.7
2018-Feb-13 19:18N 46°10' W 126°00'2412.6
2018-Feb-13 17:22N 46°34' W 125°60'712.6
2018-Feb-13 16:48N 46°42' W 125°60'9311.9
2018-Feb-13 08:57N 48°14' W 125°38'511.6
2018-Feb-13 08:29N 48°17' W 125°32'611.3
2018-Feb-13 07:59N 48°21' W 125°26'611.4
2018-Feb-13 07:26N 48°25' W 125°19'611.8
2018-Feb-13 06:57N 48°29' W 125°13'511.2
2018-Feb-13 06:30N 48°31' W 125°06'612.0
2018-Feb-13 06:00N 48°31' W 124°57'612.6
2018-Feb-13 05:31N 48°31' W 124°47'612.7
2018-Feb-13 05:00N 48°29' W 124°38'713.3
2018-Feb-13 04:31N 48°27' W 124°29'713.5
2018-Feb-13 04:00N 48°24' W 124°20'714.0
2018-Feb-13 03:30N 48°22' W 124°10'714.4
2018-Feb-13 03:00N 48°19' W 123°60'714.3
2018-Feb-13 02:30N 48°17' W 123°49'815.2
2018-Feb-13 02:00N 48°16' W 123°38'713.2
2018-Feb-13 01:30N 48°18' W 123°28'612.9
2018-Feb-13 01:00N 48°23' W 123°23'612.0
2018-Feb-13 00:31N 48°24' W 123°15'613.0
2018-Feb-13 00:01N 48°30' W 123°13'714.2
2018-Feb-12 23:30N 48°37' W 123°14'611.8
2018-Feb-12 23:00N 48°43' W 123°12'713.3
2018-Feb-12 22:30N 48°46' W 123°03'510.0
2018-Feb-12 22:00N 48°51' W 123°05'612.8
2018-Feb-12 21:30N 48°56' W 123°11'712.7
2018-Feb-12 21:00N 49°00' W 123°18'612.4
2018-Feb-12 20:30N 49°05' W 123°24'612.3
2018-Feb-12 20:00N 49°11' W 123°22'612.3
2018-Feb-12 19:30N 49°17' W 123°20'612.2
2018-Feb-12 19:00N 49°19' W 123°11'4 7.9
2018-Feb-12 18:30N 49°18' W 123°05'3 6.4
2018-Feb-12 18:00N 49°18' W 123°00'0 0.3
2018-Feb-12 17:30N 49°18' W 123°00'0 0.0
2018-Feb-12 17:00N 49°18' W 123°00'0 0.0
2018-Feb-12 16:30N 49°18' W 123°00'0 0.0
2018-Feb-12 16:00N 49°18' W 123°00'0 0.0
2018-Feb-12 15:12N 49°18' W 123°00'0 0.0
2018-Feb-12 15:00N 49°18' W 123°00'0 0.0
2018-Feb-12 14:30N 49°18' W 123°00'0 0.0
2018-Feb-12 14:00N 49°18' W 123°00'0 0.0
2018-Feb-12 13:30N 49°18' W 123°00'0 0.0
2018-Feb-12 13:00N 49°18' W 123°00'0 0.0
2018-Feb-12 12:30N 49°18' W 123°00'0 0.0
2018-Feb-12 12:00N 49°18' W 123°00'0 0.0
2018-Feb-12 11:30N 49°18' W 123°00'0 0.0
2018-Feb-12 11:00N 49°18' W 123°00'0 0.0
2018-Feb-12 10:30N 49°18' W 123°00'0 0.0
2018-Feb-12 10:00N 49°18' W 123°00'0 0.0
2018-Feb-12 09:30N 49°18' W 123°00'0 0.0
2018-Feb-12 09:00N 49°18' W 123°00'0 0.0
2018-Feb-12 08:27N 49°18' W 123°00'0 0.0
2018-Feb-12 08:00N 49°18' W 123°00'0 0.0
2018-Feb-12 07:30N 49°18' W 123°00'0 0.0
2018-Feb-12 07:00N 49°18' W 123°00'0 0.0
2018-Feb-12 06:30N 49°18' W 123°00'0 0.0
2018-Feb-12 06:00N 49°18' W 123°00'0 0.0
2018-Feb-12 05:30N 49°18' W 123°00'0 0.0
2018-Feb-12 05:00N 49°18' W 123°00'0 0.0
2018-Feb-12 04:30N 49°18' W 123°00'0 0.0
2018-Feb-12 04:00N 49°18' W 123°00'0 0.0
2018-Feb-12 03:30N 49°18' W 123°00'0 0.0
2018-Feb-12 03:00N 49°18' W 123°00'0 0.0
2018-Feb-12 02:18N 49°18' W 123°00'0 0.0
2018-Feb-12 02:00N 49°18' W 123°00'0 0.0
2018-Feb-12 01:30N 49°18' W 123°00'0 0.0
2018-Feb-12 01:00N 49°18' W 123°00'0 0.0
2018-Feb-12 00:30N 49°18' W 123°00'0 0.0
2018-Feb-12 00:00N 49°18' W 123°00'0 0.0
2018-Feb-11 23:30N 49°18' W 123°00'0 0.0
2018-Feb-11 23:00N 49°18' W 123°00'0 0.0
2018-Feb-11 22:30N 49°18' W 123°00'0 0.0
2018-Feb-11 22:00N 49°18' W 123°00'0 0.0
2018-Feb-11 21:30N 49°18' W 123°00'0 0.0
2018-Feb-11 21:00N 49°18' W 123°00'0 0.0
2018-Feb-11 20:30N 49°18' W 123°00'0 0.0
2018-Feb-11 20:00N 49°18' W 123°00'0 0.0
2018-Feb-11 19:30N 49°18' W 123°00'0 0.0
2018-Feb-11 19:00N 49°18' W 123°00'0 0.0
2018-Feb-11 18:30N 49°18' W 123°00'0 0.0
2018-Feb-11 18:00N 49°18' W 123°00'0 0.0
2018-Feb-11 17:30N 49°18' W 123°00'0 0.0
2018-Feb-11 17:00N 49°18' W 123°00'0 0.0
2018-Feb-11 16:30N 49°18' W 123°00'0 0.0
2018-Feb-11 16:00N 49°18' W 123°00'0 0.0
2018-Feb-11 15:30N 49°18' W 123°00'0 0.0
2018-Feb-11 15:00N 49°18' W 123°00'0 0.0
2018-Feb-11 14:30N 49°18' W 123°00'0 0.0
2018-Feb-11 14:00N 49°18' W 123°00'0 0.0
2018-Feb-11 13:30N 49°18' W 123°00'0 0.0
2018-Feb-11 13:00N 49°18' W 123°00'0 0.0
2018-Feb-11 12:30N 49°18' W 123°00'0 0.0
2018-Feb-11 12:00N 49°18' W 123°00'1 2.4
2018-Feb-11 11:30N 49°18' W 122°58'0 0.3
2018-Feb-11 10:59N 49°18' W 122°58'0 0.1
2018-Feb-11 10:29N 49°18' W 122°58'0 0.1
2018-Feb-11 09:59N 49°18' W 122°58'0 0.2
2018-Feb-11 09:29N 49°18' W 122°58'0 0.1
2018-Feb-11 08:56N 49°18' W 122°58'0 0.1
2018-Feb-11 08:26N 49°18' W 122°58'0 0.0
2018-Feb-11 07:56N 49°18' W 122°58'0 0.1
2018-Feb-11 07:29N 49°18' W 122°58'0 0.2
2018-Feb-11 06:59N 49°18' W 122°58'0 0.2
2018-Feb-11 06:29N 49°18' W 122°58'0 0.0
2018-Feb-11 05:59N 49°18' W 122°58'0 0.1
2018-Feb-11 05:29N 49°18' W 122°58'0 0.0
2018-Feb-11 04:59N 49°18' W 122°58'0 0.0
2018-Feb-11 03:56N 49°18' W 122°58'0 0.0
2018-Feb-11 03:29N 49°18' W 122°58'0 0.0
2018-Feb-11 02:59N 49°18' W 122°58'0 0.0
2018-Feb-11 02:29N 49°18' W 122°58'0 0.0
2018-Feb-11 01:59N 49°18' W 122°58'0 0.0
2018-Feb-11 01:26N 49°18' W 122°58'0 0.0
2018-Feb-11 00:56N 49°18' W 122°58'0 0.0
2018-Feb-11 00:29N 49°18' W 122°58'0 0.0
2018-Feb-10 23:56N 49°18' W 122°58'0 0.0
2018-Feb-10 23:26N 49°18' W 122°58'0 0.0
2018-Feb-10 22:59N 49°18' W 122°58'0 0.1
2018-Feb-10 22:08N 49°18' W 122°58'0 0.0
2018-Feb-10 21:56N 49°18' W 122°58'0 0.1
2018-Feb-10 21:29N 49°18' W 122°58'0 0.1
2018-Feb-10 20:59N 49°18' W 122°58'0 0.0
2018-Feb-10 20:29N 49°18' W 122°58'0 0.0
2018-Feb-10 19:53N 49°18' W 122°58'0 0.0
2018-Feb-10 19:26N 49°18' W 122°58'0 0.1
2018-Feb-10 18:50N 49°18' W 122°58'0 0.0
2018-Feb-10 18:29N 49°18' W 122°58'0 0.1
2018-Feb-10 17:59N 49°18' W 122°58'0 0.1
2018-Feb-10 17:29N 49°18' W 122°58'0 0.1
2018-Feb-10 17:01N 49°18' W 122°58'1 1.8
2018-Feb-10 16:30N 49°18' W 122°60'3 5.8
2018-Feb-10 16:01N 49°18' W 123°04'0 0.1
2018-Feb-10 15:30N 49°18' W 123°04'0 0.0
2018-Feb-10 15:00N 49°18' W 123°04'0 0.0
2018-Feb-10 14:30N 49°18' W 123°04'0 0.1
2018-Feb-10 14:00N 49°18' W 123°04'0 0.0
2018-Feb-10 13:30N 49°18' W 123°04'0 0.0
2018-Feb-10 13:00N 49°18' W 123°04'0 0.0
2018-Feb-10 12:30N 49°18' W 123°04'0 0.0
2018-Feb-10 12:00N 49°18' W 123°04'0 0.2
2018-Feb-10 11:30N 49°18' W 123°04'0 0.2
2018-Feb-10 11:00N 49°18' W 123°04'0 0.0
2018-Feb-10 10:30N 49°18' W 123°04'0 0.0
2018-Feb-10 10:00N 49°18' W 123°04'0 0.0
2018-Feb-10 09:30N 49°18' W 123°04'0 0.1
2018-Feb-10 09:00N 49°18' W 123°04'0 0.1
2018-Feb-10 08:30N 49°18' W 123°04'0 0.0
2018-Feb-10 08:00N 49°18' W 123°04'0 0.0
2018-Feb-10 07:30N 49°18' W 123°04'0 0.0
2018-Feb-10 07:00N 49°18' W 123°04'0 0.0
2018-Feb-10 06:30N 49°18' W 123°04'0 0.1
2018-Feb-10 06:00N 49°18' W 123°04'0 0.0
2018-Feb-10 05:30N 49°18' W 123°04'0 0.0
2018-Feb-10 05:00N 49°18' W 123°04'0 0.1
2018-Feb-10 04:30N 49°18' W 123°04'0 0.0
2018-Feb-10 04:00N 49°18' W 123°04'0 0.1
2018-Feb-10 03:30N 49°18' W 123°04'0 0.1
2018-Feb-10 03:00N 49°18' W 123°04'0 0.2
2018-Feb-10 02:30N 49°18' W 123°04'0 0.0
2018-Feb-10 02:00N 49°18' W 123°04'0 0.1
2018-Feb-10 01:30N 49°18' W 123°04'0 0.1
2018-Feb-10 01:00N 49°18' W 123°04'0 0.1
2018-Feb-10 00:30N 49°18' W 123°04'0 0.1
2018-Feb-10 00:00N 49°18' W 123°04'0 0.4
2018-Feb-09 23:30N 49°18' W 123°04'4 7.3
2018-Feb-09 23:00N 49°19' W 123°10'210.1
2018-Feb-09 22:46N 49°19' W 123°13'2410.6
2018-Feb-09 20:30N 48°55' W 123°06'3112.5
2018-Feb-09 18:00N 48°33' W 122°34'2 4.0
2018-Feb-09 17:30N 48°31' W 122°35'  
Track history (hours):
 
Tides and Currents Weather Stations Pressure Air Temp Water Temp Dewpoint Dewpoint Depression Visibility Wind Speed Wind Dir Waves Ship Positions

Nancy Peterkin

Owner: Kirby Offshore Marine, LLC, Seattle, WA. More information available from US FCC via Universal Licensing System and Coast Guard Vessel Documentation Center.

Last reported at 2018-Feb-18 06:08 UTC. Time now 2018-Feb-19 14:21 UTC.
Position N 38°02' W 122°08'.

Length 205 m; draft 5.7 m.

Type: . MMSI: 338134000.

Date/timePositionNaut miles runAvg speedWind from/ knotsBaromVisibWave heightAir tempDewpointWater temp
2018-Feb-18 06:08N 38°02' W 122°08'0 0.0
2018-Feb-18 05:41N 38°02' W 122°08'0 0.1
2018-Feb-18 05:30N 38°02' W 122°08'1 1.6
2018-Feb-18 04:54N 38°02' W 122°09'4 8.2
2018-Feb-18 04:27N 38°04' W 122°13'4 9.7
2018-Feb-18 04:00N 38°03' W 122°18'510.8
2018-Feb-18 03:30N 38°01' W 122°24'5 9.5
2018-Feb-18 03:00N 37°56' W 122°27'5 9.4
2018-Feb-18 02:31N 37°52' W 122°25'611.7
2018-Feb-18 02:01N 37°47' W 122°21'1 2.5
2018-Feb-18 01:30N 37°46' W 122°20'0 0.1
2018-Feb-18 01:00N 37°46' W 122°20'0 0.0
2018-Feb-18 00:29N 37°46' W 122°20'0 0.0
2018-Feb-17 23:59N 37°46' W 122°20'0 0.1
2018-Feb-17 23:29N 37°46' W 122°20'0 0.0
2018-Feb-17 22:59N 37°46' W 122°20'0 0.1
2018-Feb-17 22:26N 37°46' W 122°20'0 0.0
2018-Feb-17 21:56N 37°46' W 122°20'0 0.1
2018-Feb-17 21:29N 37°46' W 122°20'0 0.3
2018-Feb-17 20:59N 37°46' W 122°20'0 0.2
2018-Feb-17 20:29N 37°45' W 122°20'0 0.0
2018-Feb-17 19:59N 37°45' W 122°20'0 0.1
2018-Feb-17 19:29N 37°45' W 122°20'0 0.0
2018-Feb-17 18:59N 37°45' W 122°20'0 0.0
2018-Feb-17 18:29N 37°45' W 122°20'0 0.0
2018-Feb-17 17:59N 37°45' W 122°20'0 0.0
2018-Feb-17 17:29N 37°45' W 122°20'0 0.0
2018-Feb-17 17:00N 37°45' W 122°20'0 0.0
2018-Feb-17 16:29N 37°45' W 122°20'0 0.1
2018-Feb-17 15:59N 37°45' W 122°20'0 0.2
2018-Feb-17 15:29N 37°46' W 122°20'0 0.2
2018-Feb-17 14:59N 37°46' W 122°20'0 0.1
2018-Feb-17 14:29N 37°46' W 122°20'0 0.0
2018-Feb-17 13:59N 37°46' W 122°20'0 0.0
2018-Feb-17 13:29N 37°46' W 122°20'0 0.0
2018-Feb-17 12:59N 37°46' W 122°20'0 0.0
2018-Feb-17 12:29N 37°46' W 122°20'0 0.0
2018-Feb-17 11:59N 37°46' W 122°20'0 0.0
2018-Feb-17 11:29N 37°46' W 122°20'0 0.1
2018-Feb-17 11:00N 37°46' W 122°20'0 0.1
2018-Feb-17 10:29N 37°46' W 122°20'0 0.1
2018-Feb-17 09:59N 37°46' W 122°20'0 0.3
2018-Feb-17 09:29N 37°45' W 122°20'0 0.1
2018-Feb-17 08:59N 37°45' W 122°20'0 0.0
2018-Feb-17 08:29N 37°45' W 122°20'0 0.0
2018-Feb-17 07:59N 37°45' W 122°20'0 0.1
2018-Feb-17 07:29N 37°45' W 122°20'0 0.0
2018-Feb-17 06:59N 37°45' W 122°20'0 0.0
2018-Feb-17 06:29N 37°45' W 122°20'0 0.0
2018-Feb-17 05:59N 37°45' W 122°20'0 0.0
2018-Feb-17 05:29N 37°45' W 122°20'0 0.0
2018-Feb-17 05:00N 37°45' W 122°20'0 0.2
2018-Feb-17 04:29N 37°46' W 122°20'0 0.0
2018-Feb-17 03:59N 37°46' W 122°20'0 0.1
2018-Feb-17 03:29N 37°46' W 122°20'0 0.2
2018-Feb-17 02:59N 37°46' W 122°20'0 0.1
2018-Feb-17 02:29N 37°46' W 122°20'0 0.0
2018-Feb-17 01:59N 37°46' W 122°20'0 0.0
2018-Feb-17 01:29N 37°46' W 122°20'0 0.0
2018-Feb-17 00:56N 37°46' W 122°20'0 0.1
2018-Feb-17 00:29N 37°46' W 122°20'0 0.1
2018-Feb-16 23:59N 37°46' W 122°20'0 0.0
2018-Feb-16 23:29N 37°46' W 122°20'0 0.0
2018-Feb-16 22:59N 37°46' W 122°20'0 0.1
2018-Feb-16 22:31N 37°46' W 122°20'2 2.9
2018-Feb-16 21:59N 37°47' W 122°21'5 9.9
2018-Feb-16 21:31N 37°51' W 122°25'4 8.7
2018-Feb-16 21:00N 37°55' W 122°25'0 0.2
2018-Feb-16 20:29N 37°55' W 122°25'0 0.0
2018-Feb-16 19:59N 37°55' W 122°25'0 0.0
2018-Feb-16 19:26N 37°55' W 122°25'0 0.0
2018-Feb-16 18:59N 37°55' W 122°25'0 0.0
2018-Feb-16 18:26N 37°55' W 122°25'0 0.0
2018-Feb-16 17:59N 37°55' W 122°25'0 0.0
2018-Feb-16 17:29N 37°55' W 122°25'0 0.0
2018-Feb-16 16:59N 37°55' W 122°25'0 0.0
2018-Feb-16 16:23N 37°55' W 122°25'0 0.0
2018-Feb-16 15:59N 37°55' W 122°25'0 0.0
2018-Feb-16 15:29N 37°55' W 122°25'0 0.0
2018-Feb-16 14:59N 37°55' W 122°25'0 0.0
2018-Feb-16 14:29N 37°55' W 122°25'0 0.0
2018-Feb-16 13:59N 37°55' W 122°25'0 0.0
2018-Feb-16 13:29N 37°55' W 122°25'0 0.0
2018-Feb-16 12:59N 37°55' W 122°25'0 0.0
2018-Feb-16 12:29N 37°55' W 122°25'0 0.0
2018-Feb-16 11:59N 37°55' W 122°25'0 0.0
2018-Feb-16 11:29N 37°55' W 122°25'0 0.0
2018-Feb-16 10:59N 37°55' W 122°25'0 0.0
2018-Feb-16 10:23N 37°55' W 122°25'0 0.0
2018-Feb-16 09:56N 37°55' W 122°25'0 0.0
2018-Feb-16 09:29N 37°55' W 122°25'0 0.0
2018-Feb-16 08:53N 37°55' W 122°25'0 0.0
2018-Feb-16 08:29N 37°55' W 122°25'0 0.0
2018-Feb-16 07:59N 37°55' W 122°25'0 0.0
2018-Feb-16 07:29N 37°55' W 122°25'0 0.0
2018-Feb-16 06:59N 37°55' W 122°25'0 0.0
2018-Feb-16 06:29N 37°55' W 122°25'0 0.0
2018-Feb-16 05:59N 37°55' W 122°25'0 0.0
2018-Feb-16 05:29N 37°55' W 122°25'0 0.0
2018-Feb-16 04:53N 37°55' W 122°25'0 0.0
2018-Feb-16 04:26N 37°55' W 122°25'0 0.0
2018-Feb-16 03:59N 37°55' W 122°25'0 0.0
2018-Feb-16 03:29N 37°55' W 122°25'0 0.0
2018-Feb-16 02:59N 37°55' W 122°25'0 0.0
2018-Feb-16 02:29N 37°55' W 122°25'0 0.0
2018-Feb-16 01:56N 37°55' W 122°25'0 0.0
2018-Feb-16 01:29N 37°55' W 122°25'0 0.0
2018-Feb-16 00:59N 37°55' W 122°25'0 0.0
2018-Feb-16 00:29N 37°55' W 122°25'0 0.0
2018-Feb-15 23:59N 37°55' W 122°25'0 0.0
2018-Feb-15 23:29N 37°55' W 122°25'0 0.0
2018-Feb-15 22:59N 37°55' W 122°25'0 0.0
2018-Feb-15 22:29N 37°55' W 122°25'0 0.0
2018-Feb-15 21:59N 37°55' W 122°25'0 0.2
2018-Feb-15 21:31N 37°55' W 122°25'2 3.6
2018-Feb-15 21:00N 37°54' W 122°25'4 8.2
2018-Feb-15 20:31N 37°50' W 122°28'510.7
2018-Feb-15 20:01N 37°47' W 122°33'510.7
2018-Feb-15 19:31N 37°45' W 122°40'5 9.6
2018-Feb-15 19:01N 37°42' W 122°44'5 9.8
2018-Feb-15 18:30N 37°39' W 122°49'5 9.9
2018-Feb-15 18:01N 37°37' W 122°55'5 9.6
2018-Feb-15 17:30N 37°34' W 122°60'4 8.7
2018-Feb-15 17:00N 37°33' W 123°05'510.1
2018-Feb-15 16:29N 37°35' W 123°11'510.1
2018-Feb-15 16:01N 37°36' W 123°17'510.1
2018-Feb-15 15:31N 37°38' W 123°23'510.1
2018-Feb-15 15:01N 37°39' W 123°29'610.7
2018-Feb-15 14:28N 37°41' W 123°36'511.4
2018-Feb-15 14:01N 37°44' W 123°42'611.4
2018-Feb-15 13:31N 37°47' W 123°48'611.6
2018-Feb-15 13:00N 37°51' W 123°53'611.5
2018-Feb-15 12:30N 37°55' W 123°58'611.4
2018-Feb-15 12:00N 37°59' W 124°03'1611.4
2018-Feb-15 10:38N 38°10' W 124°17'42012.3
2018-Feb-14 00:29N 45°03' W 125°60'712.9
2018-Feb-13 23:55N 45°11' W 125°60'1913.0
2018-Feb-13 22:29N 45°29' W 125°60'4112.7
2018-Feb-13 19:18N 46°10' W 126°00'2412.6
2018-Feb-13 17:22N 46°34' W 125°60'712.6
2018-Feb-13 16:48N 46°42' W 125°60'9311.9
2018-Feb-13 08:57N 48°14' W 125°38'511.6
2018-Feb-13 08:29N 48°17' W 125°32'611.3
2018-Feb-13 07:59N 48°21' W 125°26'611.4
2018-Feb-13 07:26N 48°25' W 125°19'611.8
2018-Feb-13 06:57N 48°29' W 125°13'511.2
2018-Feb-13 06:30N 48°31' W 125°06'612.0
2018-Feb-13 06:00N 48°31' W 124°57'612.6
2018-Feb-13 05:31N 48°31' W 124°47'612.7
2018-Feb-13 05:00N 48°29' W 124°38'713.3
2018-Feb-13 04:31N 48°27' W 124°29'713.5
2018-Feb-13 04:00N 48°24' W 124°20'714.0
2018-Feb-13 03:30N 48°22' W 124°10'714.4
2018-Feb-13 03:00N 48°19' W 123°60'714.3
2018-Feb-13 02:30N 48°17' W 123°49'815.2
2018-Feb-13 02:00N 48°16' W 123°38'713.2
2018-Feb-13 01:30N 48°18' W 123°28'612.9
2018-Feb-13 01:00N 48°23' W 123°23'612.0
2018-Feb-13 00:31N 48°24' W 123°15'613.0
2018-Feb-13 00:01N 48°30' W 123°13'714.2
2018-Feb-12 23:30N 48°37' W 123°14'611.8
2018-Feb-12 23:00N 48°43' W 123°12'713.3
2018-Feb-12 22:30N 48°46' W 123°03'510.0
2018-Feb-12 22:00N 48°51' W 123°05'612.8
2018-Feb-12 21:30N 48°56' W 123°11'712.7
2018-Feb-12 21:00N 49°00' W 123°18'612.4
2018-Feb-12 20:30N 49°05' W 123°24'612.3
2018-Feb-12 20:00N 49°11' W 123°22'612.3
2018-Feb-12 19:30N 49°17' W 123°20'612.2
2018-Feb-12 19:00N 49°19' W 123°11'4 7.9
2018-Feb-12 18:30N 49°18' W 123°05'3 6.4
2018-Feb-12 18:00N 49°18' W 123°00'0 0.3
2018-Feb-12 17:30N 49°18' W 123°00'0 0.0
2018-Feb-12 17:00N 49°18' W 123°00'0 0.0
2018-Feb-12 16:30N 49°18' W 123°00'0 0.0
2018-Feb-12 16:00N 49°18' W 123°00'0 0.0
2018-Feb-12 15:12N 49°18' W 123°00'0 0.0
2018-Feb-12 15:00N 49°18' W 123°00'0 0.0
2018-Feb-12 14:30N 49°18' W 123°00'0 0.0
2018-Feb-12 14:00N 49°18' W 123°00'0 0.0
2018-Feb-12 13:30N 49°18' W 123°00'0 0.0
2018-Feb-12 13:00N 49°18' W 123°00'0 0.0
2018-Feb-12 12:30N 49°18' W 123°00'0 0.0
2018-Feb-12 12:00N 49°18' W 123°00'0 0.0
2018-Feb-12 11:30N 49°18' W 123°00'0 0.0
2018-Feb-12 11:00N 49°18' W 123°00'0 0.0
2018-Feb-12 10:30N 49°18' W 123°00'0 0.0
2018-Feb-12 10:00N 49°18' W 123°00'0 0.0
2018-Feb-12 09:30N 49°18' W 123°00'0 0.0
2018-Feb-12 09:00N 49°18' W 123°00'0 0.0
2018-Feb-12 08:27N 49°18' W 123°00'0 0.0
2018-Feb-12 08:00N 49°18' W 123°00'0 0.0
2018-Feb-12 07:30N 49°18' W 123°00'0 0.0
2018-Feb-12 07:00N 49°18' W 123°00'0 0.0
2018-Feb-12 06:30N 49°18' W 123°00'0 0.0
2018-Feb-12 06:00N 49°18' W 123°00'0 0.0
2018-Feb-12 05:30N 49°18' W 123°00'0 0.0
2018-Feb-12 05:00N 49°18' W 123°00'0 0.0
2018-Feb-12 04:30N 49°18' W 123°00'0 0.0
2018-Feb-12 04:00N 49°18' W 123°00'0 0.0
2018-Feb-12 03:30N 49°18' W 123°00'0 0.0
2018-Feb-12 03:00N 49°18' W 123°00'0 0.0
2018-Feb-12 02:18N 49°18' W 123°00'0 0.0
2018-Feb-12 02:00N 49°18' W 123°00'0 0.0
2018-Feb-12 01:30N 49°18' W 123°00'0 0.0
2018-Feb-12 01:00N 49°18' W 123°00'0 0.0
2018-Feb-12 00:30N 49°18' W 123°00'0 0.0
2018-Feb-12 00:00N 49°18' W 123°00'0 0.0
2018-Feb-11 23:30N 49°18' W 123°00'0 0.0
2018-Feb-11 23:00N 49°18' W 123°00'0 0.0
2018-Feb-11 22:30N 49°18' W 123°00'0 0.0
2018-Feb-11 22:00N 49°18' W 123°00'0 0.0
2018-Feb-11 21:30N 49°18' W 123°00'0 0.0
2018-Feb-11 21:00N 49°18' W 123°00'0 0.0
2018-Feb-11 20:30N 49°18' W 123°00'0 0.0
2018-Feb-11 20:00N 49°18' W 123°00'0 0.0
2018-Feb-11 19:30N 49°18' W 123°00'0 0.0
2018-Feb-11 19:00N 49°18' W 123°00'0 0.0
2018-Feb-11 18:30N 49°18' W 123°00'0 0.0
2018-Feb-11 18:00N 49°18' W 123°00'0 0.0
2018-Feb-11 17:30N 49°18' W 123°00'0 0.0
2018-Feb-11 17:00N 49°18' W 123°00'0 0.0
2018-Feb-11 16:30N 49°18' W 123°00'0 0.0
2018-Feb-11 16:00N 49°18' W 123°00'0 0.0
2018-Feb-11 15:30N 49°18' W 123°00'0 0.0
2018-Feb-11 15:00N 49°18' W 123°00'0 0.0
2018-Feb-11 14:30N 49°18' W 123°00'0 0.0
2018-Feb-11 14:00N 49°18' W 123°00'0 0.0
2018-Feb-11 13:30N 49°18' W 123°00'0 0.0
2018-Feb-11 13:00N 49°18' W 123°00'0 0.0
2018-Feb-11 12:30N 49°18' W 123°00'0 0.0
2018-Feb-11 12:00N 49°18' W 123°00'1 2.4
2018-Feb-11 11:30N 49°18' W 122°58'0 0.3
2018-Feb-11 10:59N 49°18' W 122°58'0 0.1
2018-Feb-11 10:29N 49°18' W 122°58'0 0.1
2018-Feb-11 09:59N 49°18' W 122°58'0 0.2
2018-Feb-11 09:29N 49°18' W 122°58'0 0.1
2018-Feb-11 08:56N 49°18' W 122°58'0 0.1
2018-Feb-11 08:26N 49°18' W 122°58'0 0.0
2018-Feb-11 07:56N 49°18' W 122°58'0 0.1
2018-Feb-11 07:29N 49°18' W 122°58'0 0.2
2018-Feb-11 06:59N 49°18' W 122°58'0 0.2
2018-Feb-11 06:29N 49°18' W 122°58'0 0.0
2018-Feb-11 05:59N 49°18' W 122°58'0 0.1
2018-Feb-11 05:29N 49°18' W 122°58'0 0.0
2018-Feb-11 04:59N 49°18' W 122°58'0 0.0
2018-Feb-11 03:56N 49°18' W 122°58'0 0.0
2018-Feb-11 03:29N 49°18' W 122°58'0 0.0
2018-Feb-11 02:59N 49°18' W 122°58'0 0.0
2018-Feb-11 02:29N 49°18' W 122°58'0 0.0
2018-Feb-11 01:59N 49°18' W 122°58'0 0.0
2018-Feb-11 01:26N 49°18' W 122°58'0 0.0
2018-Feb-11 00:56N 49°18' W 122°58'0 0.0
2018-Feb-11 00:29N 49°18' W 122°58'0 0.0
2018-Feb-10 23:56N 49°18' W 122°58'0 0.0
2018-Feb-10 23:26N 49°18' W 122°58'0 0.0
2018-Feb-10 22:59N 49°18' W 122°58'0 0.1
2018-Feb-10 22:08N 49°18' W 122°58'0 0.0
2018-Feb-10 21:56N 49°18' W 122°58'0 0.1
2018-Feb-10 21:29N 49°18' W 122°58'0 0.1
2018-Feb-10 20:59N 49°18' W 122°58'0 0.0
2018-Feb-10 20:29N 49°18' W 122°58'0 0.0
2018-Feb-10 19:53N 49°18' W 122°58'0 0.0
2018-Feb-10 19:26N 49°18' W 122°58'0 0.1
2018-Feb-10 18:50N 49°18' W 122°58'0 0.0
2018-Feb-10 18:29N 49°18' W 122°58'0 0.1
2018-Feb-10 17:59N 49°18' W 122°58'0 0.1
2018-Feb-10 17:29N 49°18' W 122°58'0 0.1
2018-Feb-10 17:01N 49°18' W 122°58'1 1.8
2018-Feb-10 16:30N 49°18' W 122°60'3 5.8
2018-Feb-10 16:01N 49°18' W 123°04'0 0.1
2018-Feb-10 15:30N 49°18' W 123°04'0 0.0
2018-Feb-10 15:00N 49°18' W 123°04'0 0.0
2018-Feb-10 14:30N 49°18' W 123°04'0 0.1
2018-Feb-10 14:00N 49°18' W 123°04'0 0.0
2018-Feb-10 13:30N 49°18' W 123°04'0 0.0
2018-Feb-10 13:00N 49°18' W 123°04'0 0.0
2018-Feb-10 12:30N 49°18' W 123°04'0 0.0
2018-Feb-10 12:00N 49°18' W 123°04'0 0.2
2018-Feb-10 11:30N 49°18' W 123°04'0 0.2
2018-Feb-10 11:00N 49°18' W 123°04'0 0.0
2018-Feb-10 10:30N 49°18' W 123°04'0 0.0
2018-Feb-10 10:00N 49°18' W 123°04'0 0.0
2018-Feb-10 09:30N 49°18' W 123°04'0 0.1
2018-Feb-10 09:00N 49°18' W 123°04'0 0.1
2018-Feb-10 08:30N 49°18' W 123°04'0 0.0
2018-Feb-10 08:00N 49°18' W 123°04'0 0.0
2018-Feb-10 07:30N 49°18' W 123°04'0 0.0
2018-Feb-10 07:00N 49°18' W 123°04'0 0.0
2018-Feb-10 06:30N 49°18' W 123°04'0 0.1
2018-Feb-10 06:00N 49°18' W 123°04'0 0.0
2018-Feb-10 05:30N 49°18' W 123°04'0 0.0
2018-Feb-10 05:00N 49°18' W 123°04'0 0.1
2018-Feb-10 04:30N 49°18' W 123°04'0 0.0
2018-Feb-10 04:00N 49°18' W 123°04'0 0.1
2018-Feb-10 03:30N 49°18' W 123°04'0 0.1
2018-Feb-10 03:00N 49°18' W 123°04'0 0.2
2018-Feb-10 02:30N 49°18' W 123°04'0 0.0
2018-Feb-10 02:00N 49°18' W 123°04'0 0.1
2018-Feb-10 01:30N 49°18' W 123°04'0 0.1
2018-Feb-10 01:00N 49°18' W 123°04'0 0.1
2018-Feb-10 00:30N 49°18' W 123°04'0 0.1
2018-Feb-10 00:00N 49°18' W 123°04'0 0.4
2018-Feb-09 23:30N 49°18' W 123°04'4 7.3
2018-Feb-09 23:00N 49°19' W 123°10'210.1
2018-Feb-09 22:46N 49°19' W 123°13'2410.6
2018-Feb-09 20:30N 48°55' W 123°06'3112.5
2018-Feb-09 18:00N 48°33' W 122°34'2 4.0
2018-Feb-09 17:30N 48°31' W 122°35'  

Dump ship's entire track history